MSC Fantasia — 3ETR7 — position and weather

sailwx.info

Track history (hours):
 
Tides and Currents Weather Stations Pressure Air Temp Water Temp Dewpoint Dewpoint Depression Visibility Wind Speed Wind Dir Waves Ship Positions

MSC Fantasia

Last reported at 2018-Oct-22 19:17 UTC. Time now 2018-Oct-22 22:57 UTC.
Position N 42°57' E 006°34'.

Length 333 m; draft 8.6 m.

Type: Ship. MMSI: 370648000.

Date/timePositionNaut miles runAvg speedWind from/ knotsBaromVisibWave heightAir tempDewpointWater temp
2018-Oct-22 19:17N 42°57' E 006°34'521.1
2018-Oct-22 19:03N 43°01' E 006°39'121.0
2018-Oct-22 19:00N 43°01' E 006°40'1121.1
2018-Oct-22 18:30N 43°09' E 006°50'920.9
2018-Oct-22 18:03N 43°18' E 006°54'121.0
2018-Oct-22 18:00N 43°19' E 006°55'1021.0
2018-Oct-22 17:30N 43°29' E 006°59'3 7.3
2018-Oct-22 17:02N 43°32' E 007°00'0 1.9
2018-Oct-22 17:00N 43°32' E 007°00'0 0.8
2018-Oct-22 16:30N 43°32' E 007°01'0 0.5
2018-Oct-22 16:03N 43°32' E 007°00'0 2.6
2018-Oct-22 16:00N 43°32' E 007°00'0 0.6
2018-Oct-22 15:30N 43°32' E 007°01'0 0.3
2018-Oct-22 15:02N 43°32' E 007°01'0 0.2
2018-Oct-22 14:59N 43°32' E 007°01'0 0.1
2018-Oct-22 14:29N 43°32' E 007°01'0 0.1
2018-Oct-22 13:29N 43°32' E 007°01'0 0.0
2018-Oct-22 13:02N 43°32' E 007°01'0 0.1
2018-Oct-22 12:59N 43°32' E 007°01'0 0.0
2018-Oct-22 12:28N 43°32' E 007°01'0 0.0
2018-Oct-22 11:58N 43°32' E 007°01'0 0.0
2018-Oct-22 11:28N 43°32' E 007°01'0 0.1
2018-Oct-22 11:01N 43°32' E 007°01'0 0.0
2018-Oct-22 10:58N 43°32' E 007°01'0 0.0
2018-Oct-22 10:30N 43°32' E 007°01'0 0.1
2018-Oct-22 10:03N 43°32' E 007°01'0 0.2
2018-Oct-22 10:00N 43°32' E 007°01'0 0.0
2018-Oct-22 09:30N 43°32' E 007°01'0 0.0
2018-Oct-22 09:03N 43°32' E 007°01'0 0.5
2018-Oct-22 09:00N 43°32' E 007°01'0 0.1
2018-Oct-22 08:30N 43°32' E 007°01'0 0.4
2018-Oct-22 08:02N 43°32' E 007°01'0 0.1
2018-Oct-22 07:59N 43°32' E 007°01'0 0.0
2018-Oct-22 07:29N 43°32' E 007°01'0 0.1
2018-Oct-22 07:02N 43°32' E 007°01'0 0.4
2018-Oct-22 06:59N 43°32' E 007°01'0 0.1
2018-Oct-22 06:29N 43°32' E 007°01'0 0.0
2018-Oct-22 06:02N 43°32' E 007°01'0 0.0
2018-Oct-22 05:59N 43°32' E 007°01'0 0.1
2018-Oct-22 05:28N 43°32' E 007°01'1 1.5
2018-Oct-22 05:03N 43°31' E 007°01'0 7.5
2018-Oct-22 05:00N 43°31' E 007°01'3 6.8
2018-Oct-22 04:30N 43°28' E 007°04'3 7.7
2018-Oct-22 04:04N 43°28' E 007°09'0 7.7
2018-Oct-22 04:00N 43°28' E 007°09'4 7.9
2018-Oct-22 03:30N 43°29' E 007°15'4 8.2
2018-Oct-22 03:03N 43°29' E 007°20'0 8.3
2018-Oct-22 03:00N 43°29' E 007°20'4 8.4
2018-Oct-22 02:31N 43°30' E 007°26'4 8.6
2018-Oct-22 02:03N 43°31' E 007°31'0 8.7
2018-Oct-22 02:00N 43°31' E 007°32'4 8.7
2018-Oct-22 01:30N 43°32' E 007°37'4 9.0
2018-Oct-22 01:03N 43°33' E 007°43'0 9.1
2018-Oct-22 01:00N 43°33' E 007°43'4 8.8
2018-Oct-22 00:30N 43°35' E 007°49'4 8.7
2018-Oct-22 00:03N 43°36' E 007°54'0 8.5
2018-Oct-22 00:00N 43°36' E 007°55'4 8.5
2018-Oct-21 23:30N 43°37' E 008°01'4 8.5
2018-Oct-21 23:03N 43°38' E 008°05'0 8.3
2018-Oct-21 23:00N 43°39' E 008°06'4 8.2
2018-Oct-21 22:30N 43°41' E 008°11'4 8.3
2018-Oct-21 22:04N 43°42' E 008°16'0 8.4
2018-Oct-21 22:01N 43°42' E 008°16'4 8.2
2018-Oct-21 21:30N 43°45' E 008°20'9 9.2
2018-Oct-21 20:30N 43°52' E 008°28'4 9.0
2018-Oct-21 20:03N 43°56' E 008°32'0 8.9
2018-Oct-21 20:01N 43°56' E 008°32'4 8.8
2018-Oct-21 19:30N 43°59' E 008°36'4 8.5
2018-Oct-21 19:03N 44°02' E 008°39'0 8.5
2018-Oct-21 19:00N 44°03' E 008°40'5 9.1
2018-Oct-21 18:30N 44°06' E 008°43'410.0
2018-Oct-21 18:03N 44°10' E 008°47'010.0
2018-Oct-21 18:00N 44°10' E 008°48'5 9.9
2018-Oct-21 17:31N 44°14' E 008°52'4 9.9
2018-Oct-21 17:03N 44°17' E 008°56'010.0
2018-Oct-21 17:00N 44°18' E 008°57'5 9.7
2018-Oct-21 16:30N 44°23' E 008°57'3 5.3
2018-Oct-21 16:02N 44°25' E 008°55'0 0.0
2018-Oct-21 15:59N 44°25' E 008°55'0 0.0
2018-Oct-21 15:28N 44°25' E 008°55'0 0.0
2018-Oct-21 15:01N 44°25' E 008°55'0 0.0
2018-Oct-21 14:58N 44°25' E 008°55'0 0.0
2018-Oct-21 14:28N 44°25' E 008°55'0 0.0
2018-Oct-21 13:58N 44°25' E 008°55'0 0.0
2018-Oct-21 13:28N 44°25' E 008°55'0 0.0
2018-Oct-21 13:00N 44°25' E 008°55'0 0.0
2018-Oct-21 12:30N 44°25' E 008°55'0 0.0
2018-Oct-21 12:03N 44°25' E 008°55'0 0.0
2018-Oct-21 12:00N 44°25' E 008°55'0 0.0
2018-Oct-21 11:30N 44°25' E 008°55'0 0.0
2018-Oct-21 11:03N 44°25' E 008°55'0 0.0
2018-Oct-21 11:00N 44°25' E 008°55'0 0.0
2018-Oct-21 10:26N 44°25' E 008°55'0 0.0
2018-Oct-21 10:02N 44°25' E 008°55'0 0.0
2018-Oct-21 09:59N 44°25' E 008°55'0 0.0
2018-Oct-21 09:29N 44°25' E 008°55'0 0.0
2018-Oct-21 09:02N 44°25' E 008°55'0 0.0
2018-Oct-21 08:59N 44°25' E 008°55'0 0.0
2018-Oct-21 08:28N 44°25' E 008°55'0 0.0
2018-Oct-21 08:01N 44°25' E 008°55'0 0.0
2018-Oct-21 07:58N 44°25' E 008°55'0 0.0
2018-Oct-21 07:25N 44°25' E 008°55'0 0.0
2018-Oct-21 07:01N 44°25' E 008°55'0 0.0
2018-Oct-21 06:58N 44°25' E 008°55'0 0.0
2018-Oct-21 06:28N 44°25' E 008°55'0 0.0
2018-Oct-21 06:03N 44°25' E 008°55'0 0.0
2018-Oct-21 06:00N 44°25' E 008°55'0 0.0
2018-Oct-21 05:31N 44°25' E 008°55'1 1.9
2018-Oct-21 05:04N 44°24' E 008°55'0 1.5
2018-Oct-21 05:01N 44°24' E 008°55'3 6.8
2018-Oct-21 04:30N 44°21' E 008°58'3 6.5
2018-Oct-21 04:04N 44°19' E 008°60'0 6.8
2018-Oct-21 04:01N 44°18' E 008°60'3 6.8
2018-Oct-21 03:30N 44°15' E 008°59'4 8.5
2018-Oct-21 03:04N 44°11' E 008°59'0 9.1
2018-Oct-21 03:01N 44°11' E 008°59'4 9.0
2018-Oct-21 02:30N 44°06' E 008°59'4 8.9
2018-Oct-21 02:04N 44°02' E 008°59'0 9.0
2018-Oct-21 02:01N 44°02' E 008°59'4 8.7
2018-Oct-21 01:30N 43°57' E 008°59'4 8.6
2018-Oct-21 01:03N 43°53' E 008°59'0 8.6
2018-Oct-21 01:00N 43°53' E 008°59'4 8.5
2018-Oct-21 00:31N 43°49' E 008°59'4 8.5
2018-Oct-21 00:04N 43°45' E 008°59'0 8.4
2018-Oct-21 00:01N 43°44' E 008°59'4 8.2
2018-Oct-20 23:31N 43°40' E 009°00'4 8.3
2018-Oct-20 23:04N 43°38' E 009°05'0 8.3
2018-Oct-20 23:01N 43°38' E 009°05'4 8.5
2018-Oct-20 22:31N 43°38' E 009°11'4 8.6
2018-Oct-20 22:04N 43°38' E 009°16'0 8.6
2018-Oct-20 22:01N 43°38' E 009°17'4 8.6
2018-Oct-20 21:31N 43°38' E 009°23'4 8.8
2018-Oct-20 21:04N 43°38' E 009°28'0 8.8
2018-Oct-20 21:01N 43°38' E 009°29'4 8.7
2018-Oct-20 20:31N 43°41' E 009°34'4 8.8
2018-Oct-20 20:04N 43°44' E 009°38'0 8.8
2018-Oct-20 20:01N 43°44' E 009°38'4 8.7
2018-Oct-20 19:30N 43°47' E 009°42'4 8.6
2018-Oct-20 19:04N 43°50' E 009°46'0 8.6
2018-Oct-20 19:01N 43°50' E 009°46'4 8.7
2018-Oct-20 18:31N 43°53' E 009°50'4 8.3
2018-Oct-20 18:04N 43°57' E 009°52'0 8.7
2018-Oct-20 18:01N 43°57' E 009°52'4 8.8
2018-Oct-20 17:31N 44°02' E 009°52'4 9.9
2018-Oct-20 17:04N 44°06' E 009°51'0 4.5
2018-Oct-20 17:01N 44°06' E 009°50'0 0.5
2018-Oct-20 16:28N 44°06' E 009°50'0 0.0
2018-Oct-20 16:03N 44°06' E 009°50'0 0.0
2018-Oct-20 16:00N 44°06' E 009°50'0 0.0
2018-Oct-20 15:30N 44°06' E 009°50'0 0.0
2018-Oct-20 15:03N 44°06' E 009°50'0 0.0
2018-Oct-20 15:00N 44°06' E 009°50'0 0.0
2018-Oct-20 14:30N 44°06' E 009°50'0 0.0
2018-Oct-20 14:00N 44°06' E 009°50'0 0.0
2018-Oct-20 13:29N 44°06' E 009°50'0 0.0
2018-Oct-20 13:02N 44°06' E 009°50'0 0.0
2018-Oct-20 12:59N 44°06' E 009°50'0 0.0
2018-Oct-20 12:26N 44°06' E 009°50'0 0.0
2018-Oct-20 12:02N 44°06' E 009°50'0 0.0
2018-Oct-20 11:59N 44°06' E 009°50'0 0.0
2018-Oct-20 11:29N 44°06' E 009°50'0 0.0
2018-Oct-20 11:01N 44°06' E 009°50'0 0.0
2018-Oct-20 10:58N 44°06' E 009°50'0 0.0
2018-Oct-20 10:28N 44°06' E 009°50'0 0.0
2018-Oct-20 10:01N 44°06' E 009°50'0 0.0
2018-Oct-20 09:58N 44°06' E 009°50'0 0.0
2018-Oct-20 09:28N 44°06' E 009°50'0 0.0
2018-Oct-20 09:03N 44°06' E 009°50'0 0.0
2018-Oct-20 09:00N 44°06' E 009°50'0 0.0
2018-Oct-20 08:30N 44°06' E 009°50'0 0.0
2018-Oct-20 08:03N 44°06' E 009°50'0 0.0
2018-Oct-20 08:00N 44°06' E 009°50'0 0.0
2018-Oct-20 07:30N 44°06' E 009°50'0 0.0
2018-Oct-20 07:03N 44°06' E 009°50'0 0.0
2018-Oct-20 07:00N 44°06' E 009°50'0 0.0
2018-Oct-20 06:29N 44°06' E 009°50'0 0.0
2018-Oct-20 06:02N 44°06' E 009°50'0 0.0
2018-Oct-20 05:59N 44°06' E 009°50'0 0.0
2018-Oct-20 05:29N 44°06' E 009°50'0 0.0
2018-Oct-20 05:03N 44°06' E 009°50'0 0.0
2018-Oct-20 05:00N 44°06' E 009°50'1 1.4
2018-Oct-20 04:30N 44°06' E 009°51'4 8.6
2018-Oct-20 04:03N 44°02' E 009°53'111.6
2018-Oct-20 04:00N 44°02' E 009°54'713.1
2018-Oct-20 03:30N 43°55' E 009°54'714.9
2018-Oct-20 03:04N 43°49' E 009°51'114.5
2018-Oct-20 03:01N 43°49' E 009°50'714.6
2018-Oct-20 02:31N 43°42' E 009°47'714.9
2018-Oct-20 02:03N 43°35' E 009°45'115.4
2018-Oct-20 02:01N 43°34' E 009°45'815.4
2018-Oct-20 01:31N 43°27' E 009°44'715.6
2018-Oct-20 01:04N 43°20' E 009°43'115.7
2018-Oct-20 01:00N 43°19' E 009°43'816.0
2018-Oct-20 00:31N 43°11' E 009°40'716.4
2018-Oct-20 00:03N 43°04' E 009°39'116.3
2018-Oct-20 00:01N 43°03' E 009°39'816.1
2018-Oct-19 23:31N 42°55' E 009°42'715.3
2018-Oct-19 23:03N 42°50' E 009°48'116.0
2018-Oct-19 22:58N 42°49' E 009°50'716.0
2018-Oct-19 22:31N 42°44' E 009°57'715.5
2018-Oct-19 22:03N 42°41' E 010°05'115.6
2018-Oct-19 22:01N 42°40' E 010°06'815.8
2018-Oct-19 21:30N 42°35' E 010°15'818.9
2018-Oct-19 21:03N 42°30' E 010°23'118.8
2018-Oct-19 21:00N 42°29' E 010°24'1018.5
2018-Oct-19 20:28N 42°23' E 010°35'918.7
2018-Oct-19 19:58N 42°17' E 010°45'919.2
2018-Oct-19 19:29N 42°11' E 010°54'818.7
2018-Oct-19 19:04N 42°07' E 011°04'219.2
2018-Oct-19 18:57N 42°07' E 011°07'47 2.5
2018-Oct-18 23:50N 41°39' E 010°16'514.7
2018-Oct-18 23:29N 41°37' E 010°10'7012.2
2018-Oct-18 17:47N 41°42' E 008°37'415.5
2018-Oct-18 17:30N 41°46' E 008°37'28111.8
2018-Oct-17 17:41N 41°16' E 002°24'516.4
2018-Oct-17 17:24N 41°15' E 002°18'515.4
2018-Oct-17 17:04N 41°16' E 002°11'115.0
2018-Oct-17 17:00N 41°16' E 002°11'510.1
2018-Oct-17 16:30N 41°21' E 002°11'0 0.5
2018-Oct-17 15:52N 41°22' E 002°11'0 0.0
2018-Oct-17 15:28N 41°22' E 002°11'0 0.0
2018-Oct-17 15:01N 41°22' E 002°11'0 0.0
2018-Oct-17 14:58N 41°22' E 002°11'0 0.0
2018-Oct-17 13:54N 41°22' E 002°11'0 0.0
2018-Oct-17 13:27N 41°22' E 002°11'0 0.0
2018-Oct-17 12:57N 41°22' E 002°11'0 0.0
2018-Oct-17 12:21N 41°22' E 002°11'0 0.0
2018-Oct-17 12:03N 41°22' E 002°11'0 0.0
2018-Oct-17 11:57N 41°22' E 002°11'0 0.0
2018-Oct-17 11:26N 41°22' E 002°11'0 0.0
2018-Oct-17 10:41N 41°22' E 002°11'0 0.0
2018-Oct-17 10:26N 41°22' E 002°11'0 0.0
2018-Oct-17 09:56N 41°22' E 002°11'0 0.0
2018-Oct-17 09:13N 41°22' E 002°11'0 0.0
2018-Oct-17 08:50N 41°22' E 002°11'0 0.0
2018-Oct-17 08:30N 41°22' E 002°11'0 0.0
2018-Oct-17 07:54N 41°22' E 002°11'0 0.0
2018-Oct-17 07:09N 41°22' E 002°11'0 0.0
2018-Oct-17 07:01N 41°22' E 002°11'0 0.0
2018-Oct-17 06:55N 41°22' E 002°11'0 0.5
2018-Oct-17 06:30N 41°22' E 002°11'2 4.1
2018-Oct-17 06:03N 41°20' E 002°10'0 7.7
2018-Oct-17 06:00N 41°20' E 002°10'611.3
2018-Oct-17 05:30N 41°14' E 002°11'817.6
2018-Oct-17 05:03N 41°06' E 002°11'117.4
2018-Oct-17 05:00N 41°05' E 002°11'9719.0
2018-Oct-16 23:55N 39°29' E 002°23'819.4
2018-Oct-16 23:30N 39°26' E 002°33'816.7
2018-Oct-16 23:03N 39°32' E 002°39'1 9.9
2018-Oct-16 23:00N 39°33' E 002°39'1 2.0
2018-Oct-16 22:30N 39°33' E 002°37'0 0.0
2018-Oct-16 22:00N 39°33' E 002°37'0 0.0
2018-Oct-16 21:30N 39°33' E 002°37'0 0.0
2018-Oct-16 21:02N 39°33' E 002°37'0 0.0
2018-Oct-16 20:59N 39°33' E 002°37'0 0.0
2018-Oct-16 20:29N 39°33' E 002°37'0 0.0
2018-Oct-16 20:02N 39°33' E 002°37'0 0.0
2018-Oct-16 19:59N 39°33' E 002°37'0 0.0
2018-Oct-16 18:59N 39°33' E 002°37'0 0.0
2018-Oct-16 18:25N 39°33' E 002°37'0 0.0
2018-Oct-16 18:01N 39°33' E 002°37'0 0.0
2018-Oct-16 17:58N 39°33' E 002°37'0 0.0
2018-Oct-16 17:25N 39°33' E 002°37'0 0.0
2018-Oct-16 17:01N 39°33' E 002°37'0 0.0
2018-Oct-16 16:58N 39°33' E 002°37'0 0.0
2018-Oct-16 16:31N 39°33' E 002°37'0 0.0
2018-Oct-16 16:03N 39°33' E 002°37'0 0.0
2018-Oct-16 16:00N 39°33' E 002°37'0 0.0
2018-Oct-16 15:21N 39°33' E 002°37'0 0.0
2018-Oct-16 15:00N 39°33' E 002°37'0 0.0
2018-Oct-16 14:30N 39°33' E 002°37'0 0.0
2018-Oct-16 13:59N 39°33' E 002°37'0 0.0
2018-Oct-16 13:29N 39°33' E 002°37'0 0.0
2018-Oct-16 13:02N 39°33' E 002°37'0 0.0
2018-Oct-16 12:59N 39°33' E 002°37'0 0.0
2018-Oct-16 12:29N 39°33' E 002°37'0 0.0
2018-Oct-16 12:02N 39°33' E 002°37'0 0.0
2018-Oct-16 11:59N 39°33' E 002°37'0 0.0
2018-Oct-16 11:30N 39°33' E 002°38'1 2.6
2018-Oct-16 11:03N 39°33' E 002°39'0 8.6
2018-Oct-16 11:00N 39°32' E 002°39'715.0
2018-Oct-16 10:30N 39°27' E 002°33'816.4
2018-Oct-16 10:01N 39°29' E 002°23'118.1
2018-Oct-16 09:59N 39°29' E 002°22'2516.0
2018-Oct-16 08:23N 39°53' E 002°35'720.8
2018-Oct-16 08:03N 39°58' E 002°41'1220.1
2018-Oct-16 07:27N 40°07' E 002°51'1320.2
2018-Oct-16 06:49N 40°17' E 003°02'24217.5
2018-Oct-15 16:59N 43°10' E 006°48'817.4
2018-Oct-15 16:30N 43°17' E 006°53'817.2
2018-Oct-15 16:03N 43°24' E 006°57'116.9
2018-Oct-15 16:00N 43°25' E 006°58'713.4
2018-Oct-15 15:30N 43°32' E 007°00'0 0.9
2018-Oct-15 15:02N 43°32' E 007°01'0 0.4
2018-Oct-15 14:59N 43°32' E 007°01'0 0.0
2018-Oct-15 14:02N 43°32' E 007°01'0 0.1
2018-Oct-15 13:56N 43°32' E 007°01'0 0.0
2018-Oct-15 13:29N 43°32' E 007°01'0 0.0
2018-Oct-15 13:01N 43°32' E 007°01'0 0.1
2018-Oct-15 12:55N 43°32' E 007°01'0 0.0
2018-Oct-15 12:28N 43°32' E 007°01'0 0.0
2018-Oct-15 12:01N 43°32' E 007°01'0 0.0
2018-Oct-15 11:58N 43°32' E 007°01'0 0.0
2018-Oct-15 11:28N 43°32' E 007°01'0 0.0
2018-Oct-15 11:01N 43°32' E 007°01'0 0.1
2018-Oct-15 10:58N 43°32' E 007°01'0 0.0
2018-Oct-15 10:30N 43°32' E 007°01'0 0.0
2018-Oct-15 10:03N 43°32' E 007°01'0 0.1
2018-Oct-15 10:00N 43°32' E 007°01'0 0.0
2018-Oct-15 09:30N 43°32' E 007°01'0 0.0
2018-Oct-15 09:03N 43°32' E 007°01'0 0.3
2018-Oct-15 09:00N 43°32' E 007°01'0 0.1
2018-Oct-15 08:29N 43°32' E 007°01'0 0.3
2018-Oct-15 08:03N 43°32' E 007°01'0 0.1
2018-Oct-15 08:00N 43°32' E 007°01'0 0.1
2018-Oct-15 07:30N 43°32' E 007°01'0 0.1
2018-Oct-15 07:03N 43°32' E 007°01'0 0.1
2018-Oct-15 07:00N 43°32' E 007°01'0 0.0
2018-Oct-15 06:30N 43°32' E 007°01'0 0.0
2018-Oct-15 06:03N 43°32' E 007°01'0 0.1
2018-Oct-15 06:00N 43°32' E 007°01'0 0.1
2018-Oct-15 05:30N 43°32' E 007°01'0 0.7
2018-Oct-15 05:03N 43°32' E 007°01'0 3.7
2018-Oct-15 05:00N 43°31' E 007°01'3 6.7
2018-Oct-15 04:30N 43°28' E 007°02'4 8.2
2018-Oct-15 04:03N 43°28' E 007°07'0 9.1
2018-Oct-15 04:00N 43°28' E 007°07'4 8.5
2018-Oct-15 03:30N 43°28' E 007°13'4 8.5
2018-Oct-15 03:03N 43°29' E 007°18'0 8.7
2018-Oct-15 03:00N 43°29' E 007°19'4 8.7
2018-Oct-15 02:30N 43°30' E 007°25'4 8.9
2018-Oct-15 02:03N 43°31' E 007°30'0 9.1
2018-Oct-15 02:00N 43°31' E 007°31'5 9.1
2018-Oct-15 01:30N 43°32' E 007°37'4 9.2
2018-Oct-15 01:03N 43°33' E 007°43'0 9.1
2018-Oct-15 01:00N 43°33' E 007°43'5 9.2
2018-Oct-15 00:30N 43°34' E 007°49'4 8.9
2018-Oct-15 00:03N 43°36' E 007°54'0 8.9
2018-Oct-15 00:00N 43°36' E 007°55'4 8.7
2018-Oct-14 23:30N 43°37' E 008°01'4 8.5
2018-Oct-14 23:03N 43°39' E 008°06'0 8.6
2018-Oct-14 23:00N 43°39' E 008°06'4 8.9
2018-Oct-14 22:30N 43°41' E 008°12'4 8.7
2018-Oct-14 22:03N 43°43' E 008°16'0 8.4
2018-Oct-14 22:00N 43°43' E 008°17'5 9.8
2018-Oct-14 21:30N 43°46' E 008°21'510.0
2018-Oct-14 21:03N 43°50' E 008°25'0 9.8
2018-Oct-14 21:00N 43°50' E 008°26'5 9.6
2018-Oct-14 20:30N 43°54' E 008°30'4 9.2
2018-Oct-14 20:03N 43°57' E 008°33'0 9.2
2018-Oct-14 20:00N 43°58' E 008°34'5 9.0
2018-Oct-14 19:30N 44°01' E 008°38'4 8.9
2018-Oct-14 19:03N 44°04' E 008°41'0 8.9
2018-Oct-14 19:00N 44°05' E 008°42'4 9.0
2018-Oct-14 18:30N 44°08' E 008°46'4 9.0
2018-Oct-14 18:03N 44°11' E 008°49'0 8.9
2018-Oct-14 18:00N 44°12' E 008°49'4 8.8
2018-Oct-14 17:30N 44°15' E 008°53'4 9.1
2018-Oct-14 17:03N 44°18' E 008°57'0 9.2
2018-Oct-14 17:00N 44°19' E 008°57'4 8.8
2018-Oct-14 16:30N 44°23' E 008°57'2 4.0
2018-Oct-14 16:01N 44°25' E 008°55'0 0.0
2018-Oct-14 15:58N 44°25' E 008°55'0 0.0
2018-Oct-14 15:28N 44°25' E 008°55'0 0.0
2018-Oct-14 15:01N 44°25' E 008°55'0 0.0
2018-Oct-14 14:58N 44°25' E 008°55'0 0.0
2018-Oct-14 14:30N 44°25' E 008°55'0 0.0
2018-Oct-14 14:00N 44°25' E 008°55'0 0.0
2018-Oct-14 13:30N 44°25' E 008°55'0 0.0
2018-Oct-14 13:03N 44°25' E 008°55'0 0.0
2018-Oct-14 13:00N 44°25' E 008°55'0 0.0
2018-Oct-14 12:30N 44°25' E 008°55'0 0.0
2018-Oct-14 12:02N 44°25' E 008°55'0 0.0
2018-Oct-14 11:59N 44°25' E 008°55'0 0.0
2018-Oct-14 11:29N 44°25' E 008°55'0 0.0
2018-Oct-14 11:02N 44°25' E 008°55'0 0.0
2018-Oct-14 10:59N 44°25' E 008°55'0 0.0
2018-Oct-14 10:29N 44°25' E 008°55'0 0.0
2018-Oct-14 10:01N 44°25' E 008°55'0 0.0
2018-Oct-14 09:58N 44°25' E 008°55'0 0.0
2018-Oct-14 09:28N 44°25' E 008°55'0 0.0
2018-Oct-14 09:01N 44°25' E 008°55'0 0.0
2018-Oct-14 08:58N 44°25' E 008°55'0 0.0
2018-Oct-14 08:28N 44°25' E 008°55'0 0.0
2018-Oct-14 08:02N 44°25' E 008°55'0 0.0
2018-Oct-14 07:28N 44°25' E 008°55'0 0.0
2018-Oct-14 07:01N 44°25' E 008°55'0 0.0
2018-Oct-14 06:58N 44°25' E 008°55'0 0.0
2018-Oct-14 06:28N 44°25' E 008°55'0 0.0
2018-Oct-14 06:00N 44°25' E 008°55'0 0.0
2018-Oct-14 05:30N 44°25' E 008°55'0 0.0
2018-Oct-14 05:03N 44°25' E 008°55'0 0.0
2018-Oct-14 05:00N 44°25' E 008°55'1 1.8
2018-Oct-14 04:30N 44°24' E 008°55'2 4.4
2018-Oct-14 04:03N 44°23' E 008°58'0 6.6
2018-Oct-14 04:00N 44°22' E 008°58'5 9.4
2018-Oct-14 03:30N 44°18' E 008°59'4 9.7
2018-Oct-14 03:03N 44°13' E 008°59'010.0
2018-Oct-14 03:00N 44°13' E 008°59'5 9.3
2018-Oct-14 02:30N 44°08' E 008°59'4 9.1
2018-Oct-14 02:03N 44°04' E 008°59'0 8.5
2018-Oct-14 02:00N 44°04' E 008°59'4 8.3
2018-Oct-14 01:30N 43°59' E 008°59'4 8.0
2018-Oct-14 01:03N 43°56' E 008°59'0 8.0
2018-Oct-14 01:00N 43°56' E 008°59'4 8.0
2018-Oct-14 00:30N 43°52' E 008°59'4 7.9
2018-Oct-14 00:03N 43°48' E 008°59'0 7.9
2018-Oct-14 00:00N 43°48' E 008°59'4 8.1
2018-Oct-13 23:30N 43°44' E 008°59'4 8.3
2018-Oct-13 23:03N 43°40' E 009°01'0 8.7
2018-Oct-13 23:00N 43°40' E 009°01'4 8.4
2018-Oct-13 22:30N 43°38' E 009°07'4 8.5
2018-Oct-13 22:03N 43°38' E 009°12'0 8.4
2018-Oct-13 22:00N 43°38' E 009°13'4 8.4
2018-Oct-13 21:30N 43°38' E 009°18'4 8.6
2018-Oct-13 21:03N 43°38' E 009°24'0 8.8
2018-Oct-13 21:00N 43°38' E 009°24'4 8.5
2018-Oct-13 20:30N 43°39' E 009°30'4 8.4
2018-Oct-13 20:03N 43°42' E 009°34'0 8.9
2018-Oct-13 20:00N 43°42' E 009°34'5 9.5
2018-Oct-13 19:30N 43°46' E 009°38'4 9.5
2018-Oct-13 19:03N 43°49' E 009°42'0 9.3
2018-Oct-13 19:00N 43°50' E 009°42'5 9.5
2018-Oct-13 18:30N 43°54' E 009°46'4 9.3
2018-Oct-13 18:03N 43°57' E 009°49'0 9.4
2018-Oct-13 18:00N 43°57' E 009°49'5 9.0
2018-Oct-13 17:30N 44°01' E 009°52'4 9.4
2018-Oct-13 17:03N 44°06' E 009°51'0 8.2
2018-Oct-13 17:00N 44°06' E 009°51'1 1.0
2018-Oct-13 16:28N 44°06' E 009°50'0 0.0
2018-Oct-13 16:01N 44°06' E 009°50'0 0.0
2018-Oct-13 15:58N 44°06' E 009°50'0 0.0
2018-Oct-13 15:28N 44°06' E 009°50'0 0.0
2018-Oct-13 15:04N 44°06' E 009°50'0 0.0
2018-Oct-13 15:00N 44°06' E 009°50'0 0.0
2018-Oct-13 14:30N 44°06' E 009°50'0 0.0
2018-Oct-13 14:00N 44°06' E 009°50'0 0.0
2018-Oct-13 13:30N 44°06' E 009°50'0 0.0
2018-Oct-13 13:03N 44°06' E 009°50'0 0.0
2018-Oct-13 13:00N 44°06' E 009°50'0 0.0
2018-Oct-13 12:26N 44°06' E 009°50'0 0.0
2018-Oct-13 12:02N 44°06' E 009°50'0 0.0
2018-Oct-13 11:59N 44°06' E 009°50'0 0.0
2018-Oct-13 11:29N 44°06' E 009°50'0 0.0
2018-Oct-13 11:02N 44°06' E 009°50'0 0.0
2018-Oct-13 11:00N 44°06' E 009°50'0 0.0
2018-Oct-13 10:29N 44°06' E 009°50'0 0.0
2018-Oct-13 10:01N 44°06' E 009°50'0 0.0
2018-Oct-13 09:58N 44°06' E 009°50'0 0.0
2018-Oct-13 09:28N 44°06' E 009°50'0 0.0
2018-Oct-13 09:01N 44°06' E 009°50'0 0.0
2018-Oct-13 08:58N 44°06' E 009°50'0 0.0
2018-Oct-13 08:28N 44°06' E 009°50'0 0.0
2018-Oct-13 08:04N 44°06' E 009°50'0 0.0
2018-Oct-13 08:00N 44°06' E 009°50'0 0.0
2018-Oct-13 07:30N 44°06' E 009°50'0 0.0
2018-Oct-13 07:03N 44°06' E 009°50'0 0.0
2018-Oct-13 07:00N 44°06' E 009°50'0 0.0
2018-Oct-13 06:27N 44°06' E 009°50'0 0.0
2018-Oct-13 06:00N 44°06' E 009°50'0 0.0
2018-Oct-13 05:29N 44°06' E 009°50'0 0.0
2018-Oct-13 05:02N 44°06' E 009°50'0 0.0
2018-Oct-13 04:56N 44°06' E 009°50'0 0.0
2018-Oct-13 04:30N 44°06' E 009°50'0 1.1
2018-Oct-13 04:03N 44°06' E 009°51'0 1.9
2018-Oct-13 04:00N 44°06' E 009°51'3 5.8
2018-Oct-13 03:30N 44°03' E 009°52'613.4
2018-Oct-13 03:03N 43°58' E 009°55'117.7
2018-Oct-13 03:00N 43°57' E 009°55'918.0
2018-Oct-13 02:30N 43°48' E 009°50'818.1
2018-Oct-13 02:03N 43°41' E 009°46'118.1
2018-Oct-13 02:00N 43°40' E 009°46'918.7
2018-Oct-13 01:30N 43°31' E 009°44'818.9
2018-Oct-13 01:03N 43°22' E 009°42'119.0
2018-Oct-13 01:00N 43°21' E 009°42'918.9
2018-Oct-13 00:30N 43°12' E 009°41'919.1
2018-Oct-13 00:03N 43°03' E 009°40'118.6
2018-Oct-13 00:00N 43°02' E 009°39'918.7
2018-Oct-12 23:30N 42°53' E 009°43'818.8
2018-Oct-12 23:03N 42°48' E 009°52'118.7
2018-Oct-12 23:00N 42°48' E 009°53'918.9
2018-Oct-12 22:30N 42°42' E 010°04'1219.3
2018-Oct-12 21:52N 42°34' E 010°16'718.9
2018-Oct-12 21:30N 42°30' E 010°24'818.7
2018-Oct-12 21:03N 42°24' E 010°32'118.3
2018-Oct-12 21:00N 42°24' E 010°33'918.3
2018-Oct-12 20:30N 42°18' E 010°43'818.6
2018-Oct-12 20:03N 42°13' E 010°52'118.4
2018-Oct-12 20:00N 42°13' E 010°53'  
Track history (hours):
 
Tides and Currents Weather Stations Pressure Air Temp Water Temp Dewpoint Dewpoint Depression Visibility Wind Speed Wind Dir Waves Ship Positions

MSC Fantasia

Last reported at 2018-Oct-22 19:17 UTC. Time now 2018-Oct-22 22:57 UTC.
Position N 42°57' E 006°34'.

Length 333 m; draft 8.6 m.

Type: Ship. MMSI: 370648000.

Date/timePositionNaut miles runAvg speedWind from/ knotsBaromVisibWave heightAir tempDewpointWater temp
2018-Oct-22 19:17N 42°57' E 006°34'521.1
2018-Oct-22 19:03N 43°01' E 006°39'121.0
2018-Oct-22 19:00N 43°01' E 006°40'1121.1
2018-Oct-22 18:30N 43°09' E 006°50'920.9
2018-Oct-22 18:03N 43°18' E 006°54'121.0
2018-Oct-22 18:00N 43°19' E 006°55'1021.0
2018-Oct-22 17:30N 43°29' E 006°59'3 7.3
2018-Oct-22 17:02N 43°32' E 007°00'0 1.9
2018-Oct-22 17:00N 43°32' E 007°00'0 0.8
2018-Oct-22 16:30N 43°32' E 007°01'0 0.5
2018-Oct-22 16:03N 43°32' E 007°00'0 2.6
2018-Oct-22 16:00N 43°32' E 007°00'0 0.6
2018-Oct-22 15:30N 43°32' E 007°01'0 0.3
2018-Oct-22 15:02N 43°32' E 007°01'0 0.2
2018-Oct-22 14:59N 43°32' E 007°01'0 0.1
2018-Oct-22 14:29N 43°32' E 007°01'0 0.1
2018-Oct-22 13:29N 43°32' E 007°01'0 0.0
2018-Oct-22 13:02N 43°32' E 007°01'0 0.1
2018-Oct-22 12:59N 43°32' E 007°01'0 0.0
2018-Oct-22 12:28N 43°32' E 007°01'0 0.0
2018-Oct-22 11:58N 43°32' E 007°01'0 0.0
2018-Oct-22 11:28N 43°32' E 007°01'0 0.1
2018-Oct-22 11:01N 43°32' E 007°01'0 0.0
2018-Oct-22 10:58N 43°32' E 007°01'0 0.0
2018-Oct-22 10:30N 43°32' E 007°01'0 0.1
2018-Oct-22 10:03N 43°32' E 007°01'0 0.2
2018-Oct-22 10:00N 43°32' E 007°01'0 0.0
2018-Oct-22 09:30N 43°32' E 007°01'0 0.0
2018-Oct-22 09:03N 43°32' E 007°01'0 0.5
2018-Oct-22 09:00N 43°32' E 007°01'0 0.1
2018-Oct-22 08:30N 43°32' E 007°01'0 0.4
2018-Oct-22 08:02N 43°32' E 007°01'0 0.1
2018-Oct-22 07:59N 43°32' E 007°01'0 0.0
2018-Oct-22 07:29N 43°32' E 007°01'0 0.1
2018-Oct-22 07:02N 43°32' E 007°01'0 0.4
2018-Oct-22 06:59N 43°32' E 007°01'0 0.1
2018-Oct-22 06:29N 43°32' E 007°01'0 0.0
2018-Oct-22 06:02N 43°32' E 007°01'0 0.0
2018-Oct-22 05:59N 43°32' E 007°01'0 0.1
2018-Oct-22 05:28N 43°32' E 007°01'1 1.5
2018-Oct-22 05:03N 43°31' E 007°01'0 7.5
2018-Oct-22 05:00N 43°31' E 007°01'3 6.8
2018-Oct-22 04:30N 43°28' E 007°04'3 7.7
2018-Oct-22 04:04N 43°28' E 007°09'0 7.7
2018-Oct-22 04:00N 43°28' E 007°09'4 7.9
2018-Oct-22 03:30N 43°29' E 007°15'4 8.2
2018-Oct-22 03:03N 43°29' E 007°20'0 8.3
2018-Oct-22 03:00N 43°29' E 007°20'4 8.4
2018-Oct-22 02:31N 43°30' E 007°26'4 8.6
2018-Oct-22 02:03N 43°31' E 007°31'0 8.7
2018-Oct-22 02:00N 43°31' E 007°32'4 8.7
2018-Oct-22 01:30N 43°32' E 007°37'4 9.0
2018-Oct-22 01:03N 43°33' E 007°43'0 9.1
2018-Oct-22 01:00N 43°33' E 007°43'4 8.8
2018-Oct-22 00:30N 43°35' E 007°49'4 8.7
2018-Oct-22 00:03N 43°36' E 007°54'0 8.5
2018-Oct-22 00:00N 43°36' E 007°55'4 8.5
2018-Oct-21 23:30N 43°37' E 008°01'4 8.5
2018-Oct-21 23:03N 43°38' E 008°05'0 8.3
2018-Oct-21 23:00N 43°39' E 008°06'4 8.2
2018-Oct-21 22:30N 43°41' E 008°11'4 8.3
2018-Oct-21 22:04N 43°42' E 008°16'0 8.4
2018-Oct-21 22:01N 43°42' E 008°16'4 8.2
2018-Oct-21 21:30N 43°45' E 008°20'9 9.2
2018-Oct-21 20:30N 43°52' E 008°28'4 9.0
2018-Oct-21 20:03N 43°56' E 008°32'0 8.9
2018-Oct-21 20:01N 43°56' E 008°32'4 8.8
2018-Oct-21 19:30N 43°59' E 008°36'4 8.5
2018-Oct-21 19:03N 44°02' E 008°39'0 8.5
2018-Oct-21 19:00N 44°03' E 008°40'5 9.1
2018-Oct-21 18:30N 44°06' E 008°43'410.0
2018-Oct-21 18:03N 44°10' E 008°47'010.0
2018-Oct-21 18:00N 44°10' E 008°48'5 9.9
2018-Oct-21 17:31N 44°14' E 008°52'4 9.9
2018-Oct-21 17:03N 44°17' E 008°56'010.0
2018-Oct-21 17:00N 44°18' E 008°57'5 9.7
2018-Oct-21 16:30N 44°23' E 008°57'3 5.3
2018-Oct-21 16:02N 44°25' E 008°55'0 0.0
2018-Oct-21 15:59N 44°25' E 008°55'0 0.0
2018-Oct-21 15:28N 44°25' E 008°55'0 0.0
2018-Oct-21 15:01N 44°25' E 008°55'0 0.0
2018-Oct-21 14:58N 44°25' E 008°55'0 0.0
2018-Oct-21 14:28N 44°25' E 008°55'0 0.0
2018-Oct-21 13:58N 44°25' E 008°55'0 0.0
2018-Oct-21 13:28N 44°25' E 008°55'0 0.0
2018-Oct-21 13:00N 44°25' E 008°55'0 0.0
2018-Oct-21 12:30N 44°25' E 008°55'0 0.0
2018-Oct-21 12:03N 44°25' E 008°55'0 0.0
2018-Oct-21 12:00N 44°25' E 008°55'0 0.0
2018-Oct-21 11:30N 44°25' E 008°55'0 0.0
2018-Oct-21 11:03N 44°25' E 008°55'0 0.0
2018-Oct-21 11:00N 44°25' E 008°55'0 0.0
2018-Oct-21 10:26N 44°25' E 008°55'0 0.0
2018-Oct-21 10:02N 44°25' E 008°55'0 0.0
2018-Oct-21 09:59N 44°25' E 008°55'0 0.0
2018-Oct-21 09:29N 44°25' E 008°55'0 0.0
2018-Oct-21 09:02N 44°25' E 008°55'0 0.0
2018-Oct-21 08:59N 44°25' E 008°55'0 0.0
2018-Oct-21 08:28N 44°25' E 008°55'0 0.0
2018-Oct-21 08:01N 44°25' E 008°55'0 0.0
2018-Oct-21 07:58N 44°25' E 008°55'0 0.0
2018-Oct-21 07:25N 44°25' E 008°55'0 0.0
2018-Oct-21 07:01N 44°25' E 008°55'0 0.0
2018-Oct-21 06:58N 44°25' E 008°55'0 0.0
2018-Oct-21 06:28N 44°25' E 008°55'0 0.0
2018-Oct-21 06:03N 44°25' E 008°55'0 0.0
2018-Oct-21 06:00N 44°25' E 008°55'0 0.0
2018-Oct-21 05:31N 44°25' E 008°55'1 1.9
2018-Oct-21 05:04N 44°24' E 008°55'0 1.5
2018-Oct-21 05:01N 44°24' E 008°55'3 6.8
2018-Oct-21 04:30N 44°21' E 008°58'3 6.5
2018-Oct-21 04:04N 44°19' E 008°60'0 6.8
2018-Oct-21 04:01N 44°18' E 008°60'3 6.8
2018-Oct-21 03:30N 44°15' E 008°59'4 8.5
2018-Oct-21 03:04N 44°11' E 008°59'0 9.1
2018-Oct-21 03:01N 44°11' E 008°59'4 9.0
2018-Oct-21 02:30N 44°06' E 008°59'4 8.9
2018-Oct-21 02:04N 44°02' E 008°59'0 9.0
2018-Oct-21 02:01N 44°02' E 008°59'4 8.7
2018-Oct-21 01:30N 43°57' E 008°59'4 8.6
2018-Oct-21 01:03N 43°53' E 008°59'0 8.6
2018-Oct-21 01:00N 43°53' E 008°59'4 8.5
2018-Oct-21 00:31N 43°49' E 008°59'4 8.5
2018-Oct-21 00:04N 43°45' E 008°59'0 8.4
2018-Oct-21 00:01N 43°44' E 008°59'4 8.2
2018-Oct-20 23:31N 43°40' E 009°00'4 8.3
2018-Oct-20 23:04N 43°38' E 009°05'0 8.3
2018-Oct-20 23:01N 43°38' E 009°05'4 8.5
2018-Oct-20 22:31N 43°38' E 009°11'4 8.6
2018-Oct-20 22:04N 43°38' E 009°16'0 8.6
2018-Oct-20 22:01N 43°38' E 009°17'4 8.6
2018-Oct-20 21:31N 43°38' E 009°23'4 8.8
2018-Oct-20 21:04N 43°38' E 009°28'0 8.8
2018-Oct-20 21:01N 43°38' E 009°29'4 8.7
2018-Oct-20 20:31N 43°41' E 009°34'4 8.8
2018-Oct-20 20:04N 43°44' E 009°38'0 8.8
2018-Oct-20 20:01N 43°44' E 009°38'4 8.7
2018-Oct-20 19:30N 43°47' E 009°42'4 8.6
2018-Oct-20 19:04N 43°50' E 009°46'0 8.6
2018-Oct-20 19:01N 43°50' E 009°46'4 8.7
2018-Oct-20 18:31N 43°53' E 009°50'4 8.3
2018-Oct-20 18:04N 43°57' E 009°52'0 8.7
2018-Oct-20 18:01N 43°57' E 009°52'4 8.8
2018-Oct-20 17:31N 44°02' E 009°52'4 9.9
2018-Oct-20 17:04N 44°06' E 009°51'0 4.5
2018-Oct-20 17:01N 44°06' E 009°50'0 0.5
2018-Oct-20 16:28N 44°06' E 009°50'0 0.0
2018-Oct-20 16:03N 44°06' E 009°50'0 0.0
2018-Oct-20 16:00N 44°06' E 009°50'0 0.0
2018-Oct-20 15:30N 44°06' E 009°50'0 0.0
2018-Oct-20 15:03N 44°06' E 009°50'0 0.0
2018-Oct-20 15:00N 44°06' E 009°50'0 0.0
2018-Oct-20 14:30N 44°06' E 009°50'0 0.0
2018-Oct-20 14:00N 44°06' E 009°50'0 0.0
2018-Oct-20 13:29N 44°06' E 009°50'0 0.0
2018-Oct-20 13:02N 44°06' E 009°50'0 0.0
2018-Oct-20 12:59N 44°06' E 009°50'0 0.0
2018-Oct-20 12:26N 44°06' E 009°50'0 0.0
2018-Oct-20 12:02N 44°06' E 009°50'0 0.0
2018-Oct-20 11:59N 44°06' E 009°50'0 0.0
2018-Oct-20 11:29N 44°06' E 009°50'0 0.0
2018-Oct-20 11:01N 44°06' E 009°50'0 0.0
2018-Oct-20 10:58N 44°06' E 009°50'0 0.0
2018-Oct-20 10:28N 44°06' E 009°50'0 0.0
2018-Oct-20 10:01N 44°06' E 009°50'0 0.0
2018-Oct-20 09:58N 44°06' E 009°50'0 0.0
2018-Oct-20 09:28N 44°06' E 009°50'0 0.0
2018-Oct-20 09:03N 44°06' E 009°50'0 0.0
2018-Oct-20 09:00N 44°06' E 009°50'0 0.0
2018-Oct-20 08:30N 44°06' E 009°50'0 0.0
2018-Oct-20 08:03N 44°06' E 009°50'0 0.0
2018-Oct-20 08:00N 44°06' E 009°50'0 0.0
2018-Oct-20 07:30N 44°06' E 009°50'0 0.0
2018-Oct-20 07:03N 44°06' E 009°50'0 0.0
2018-Oct-20 07:00N 44°06' E 009°50'0 0.0
2018-Oct-20 06:29N 44°06' E 009°50'0 0.0
2018-Oct-20 06:02N 44°06' E 009°50'0 0.0
2018-Oct-20 05:59N 44°06' E 009°50'0 0.0
2018-Oct-20 05:29N 44°06' E 009°50'0 0.0
2018-Oct-20 05:03N 44°06' E 009°50'0 0.0
2018-Oct-20 05:00N 44°06' E 009°50'1 1.4
2018-Oct-20 04:30N 44°06' E 009°51'4 8.6
2018-Oct-20 04:03N 44°02' E 009°53'111.6
2018-Oct-20 04:00N 44°02' E 009°54'713.1
2018-Oct-20 03:30N 43°55' E 009°54'714.9
2018-Oct-20 03:04N 43°49' E 009°51'114.5
2018-Oct-20 03:01N 43°49' E 009°50'714.6
2018-Oct-20 02:31N 43°42' E 009°47'714.9
2018-Oct-20 02:03N 43°35' E 009°45'115.4
2018-Oct-20 02:01N 43°34' E 009°45'815.4
2018-Oct-20 01:31N 43°27' E 009°44'715.6
2018-Oct-20 01:04N 43°20' E 009°43'115.7
2018-Oct-20 01:00N 43°19' E 009°43'816.0
2018-Oct-20 00:31N 43°11' E 009°40'716.4
2018-Oct-20 00:03N 43°04' E 009°39'116.3
2018-Oct-20 00:01N 43°03' E 009°39'816.1
2018-Oct-19 23:31N 42°55' E 009°42'715.3
2018-Oct-19 23:03N 42°50' E 009°48'116.0
2018-Oct-19 22:58N 42°49' E 009°50'716.0
2018-Oct-19 22:31N 42°44' E 009°57'715.5
2018-Oct-19 22:03N 42°41' E 010°05'115.6
2018-Oct-19 22:01N 42°40' E 010°06'815.8
2018-Oct-19 21:30N 42°35' E 010°15'818.9
2018-Oct-19 21:03N 42°30' E 010°23'118.8
2018-Oct-19 21:00N 42°29' E 010°24'1018.5
2018-Oct-19 20:28N 42°23' E 010°35'918.7
2018-Oct-19 19:58N 42°17' E 010°45'919.2
2018-Oct-19 19:29N 42°11' E 010°54'818.7
2018-Oct-19 19:04N 42°07' E 011°04'219.2
2018-Oct-19 18:57N 42°07' E 011°07'47 2.5
2018-Oct-18 23:50N 41°39' E 010°16'514.7
2018-Oct-18 23:29N 41°37' E 010°10'7012.2
2018-Oct-18 17:47N 41°42' E 008°37'415.5
2018-Oct-18 17:30N 41°46' E 008°37'28111.8
2018-Oct-17 17:41N 41°16' E 002°24'516.4
2018-Oct-17 17:24N 41°15' E 002°18'515.4
2018-Oct-17 17:04N 41°16' E 002°11'115.0
2018-Oct-17 17:00N 41°16' E 002°11'510.1
2018-Oct-17 16:30N 41°21' E 002°11'0 0.5
2018-Oct-17 15:52N 41°22' E 002°11'0 0.0
2018-Oct-17 15:28N 41°22' E 002°11'0 0.0
2018-Oct-17 15:01N 41°22' E 002°11'0 0.0
2018-Oct-17 14:58N 41°22' E 002°11'0 0.0
2018-Oct-17 13:54N 41°22' E 002°11'0 0.0
2018-Oct-17 13:27N 41°22' E 002°11'0 0.0
2018-Oct-17 12:57N 41°22' E 002°11'0 0.0
2018-Oct-17 12:21N 41°22' E 002°11'0 0.0
2018-Oct-17 12:03N 41°22' E 002°11'0 0.0
2018-Oct-17 11:57N 41°22' E 002°11'0 0.0
2018-Oct-17 11:26N 41°22' E 002°11'0 0.0
2018-Oct-17 10:41N 41°22' E 002°11'0 0.0
2018-Oct-17 10:26N 41°22' E 002°11'0 0.0
2018-Oct-17 09:56N 41°22' E 002°11'0 0.0
2018-Oct-17 09:13N 41°22' E 002°11'0 0.0
2018-Oct-17 08:50N 41°22' E 002°11'0 0.0
2018-Oct-17 08:30N 41°22' E 002°11'0 0.0
2018-Oct-17 07:54N 41°22' E 002°11'0 0.0
2018-Oct-17 07:09N 41°22' E 002°11'0 0.0
2018-Oct-17 07:01N 41°22' E 002°11'0 0.0
2018-Oct-17 06:55N 41°22' E 002°11'0 0.5
2018-Oct-17 06:30N 41°22' E 002°11'2 4.1
2018-Oct-17 06:03N 41°20' E 002°10'0 7.7
2018-Oct-17 06:00N 41°20' E 002°10'611.3
2018-Oct-17 05:30N 41°14' E 002°11'817.6
2018-Oct-17 05:03N 41°06' E 002°11'117.4
2018-Oct-17 05:00N 41°05' E 002°11'9719.0
2018-Oct-16 23:55N 39°29' E 002°23'819.4
2018-Oct-16 23:30N 39°26' E 002°33'816.7
2018-Oct-16 23:03N 39°32' E 002°39'1 9.9
2018-Oct-16 23:00N 39°33' E 002°39'1 2.0
2018-Oct-16 22:30N 39°33' E 002°37'0 0.0
2018-Oct-16 22:00N 39°33' E 002°37'0 0.0
2018-Oct-16 21:30N 39°33' E 002°37'0 0.0
2018-Oct-16 21:02N 39°33' E 002°37'0 0.0
2018-Oct-16 20:59N 39°33' E 002°37'0 0.0
2018-Oct-16 20:29N 39°33' E 002°37'0 0.0
2018-Oct-16 20:02N 39°33' E 002°37'0 0.0
2018-Oct-16 19:59N 39°33' E 002°37'0 0.0
2018-Oct-16 18:59N 39°33' E 002°37'0 0.0
2018-Oct-16 18:25N 39°33' E 002°37'0 0.0
2018-Oct-16 18:01N 39°33' E 002°37'0 0.0
2018-Oct-16 17:58N 39°33' E 002°37'0 0.0
2018-Oct-16 17:25N 39°33' E 002°37'0 0.0
2018-Oct-16 17:01N 39°33' E 002°37'0 0.0
2018-Oct-16 16:58N 39°33' E 002°37'0 0.0
2018-Oct-16 16:31N 39°33' E 002°37'0 0.0
2018-Oct-16 16:03N 39°33' E 002°37'0 0.0
2018-Oct-16 16:00N 39°33' E 002°37'0 0.0
2018-Oct-16 15:21N 39°33' E 002°37'0 0.0
2018-Oct-16 15:00N 39°33' E 002°37'0 0.0
2018-Oct-16 14:30N 39°33' E 002°37'0 0.0
2018-Oct-16 13:59N 39°33' E 002°37'0 0.0
2018-Oct-16 13:29N 39°33' E 002°37'0 0.0
2018-Oct-16 13:02N 39°33' E 002°37'0 0.0
2018-Oct-16 12:59N 39°33' E 002°37'0 0.0
2018-Oct-16 12:29N 39°33' E 002°37'0 0.0
2018-Oct-16 12:02N 39°33' E 002°37'0 0.0
2018-Oct-16 11:59N 39°33' E 002°37'0 0.0
2018-Oct-16 11:30N 39°33' E 002°38'1 2.6
2018-Oct-16 11:03N 39°33' E 002°39'0 8.6
2018-Oct-16 11:00N 39°32' E 002°39'715.0
2018-Oct-16 10:30N 39°27' E 002°33'816.4
2018-Oct-16 10:01N 39°29' E 002°23'118.1
2018-Oct-16 09:59N 39°29' E 002°22'2516.0
2018-Oct-16 08:23N 39°53' E 002°35'720.8
2018-Oct-16 08:03N 39°58' E 002°41'1220.1
2018-Oct-16 07:27N 40°07' E 002°51'1320.2
2018-Oct-16 06:49N 40°17' E 003°02'24217.5
2018-Oct-15 16:59N 43°10' E 006°48'817.4
2018-Oct-15 16:30N 43°17' E 006°53'817.2
2018-Oct-15 16:03N 43°24' E 006°57'116.9
2018-Oct-15 16:00N 43°25' E 006°58'713.4
2018-Oct-15 15:30N 43°32' E 007°00'0 0.9
2018-Oct-15 15:02N 43°32' E 007°01'0 0.4
2018-Oct-15 14:59N 43°32' E 007°01'0 0.0
2018-Oct-15 14:02N 43°32' E 007°01'0 0.1
2018-Oct-15 13:56N 43°32' E 007°01'0 0.0
2018-Oct-15 13:29N 43°32' E 007°01'0 0.0
2018-Oct-15 13:01N 43°32' E 007°01'0 0.1
2018-Oct-15 12:55N 43°32' E 007°01'0 0.0
2018-Oct-15 12:28N 43°32' E 007°01'0 0.0
2018-Oct-15 12:01N 43°32' E 007°01'0 0.0
2018-Oct-15 11:58N 43°32' E 007°01'0 0.0
2018-Oct-15 11:28N 43°32' E 007°01'0 0.0
2018-Oct-15 11:01N 43°32' E 007°01'0 0.1
2018-Oct-15 10:58N 43°32' E 007°01'0 0.0
2018-Oct-15 10:30N 43°32' E 007°01'0 0.0
2018-Oct-15 10:03N 43°32' E 007°01'0 0.1
2018-Oct-15 10:00N 43°32' E 007°01'0 0.0
2018-Oct-15 09:30N 43°32' E 007°01'0 0.0
2018-Oct-15 09:03N 43°32' E 007°01'0 0.3
2018-Oct-15 09:00N 43°32' E 007°01'0 0.1
2018-Oct-15 08:29N 43°32' E 007°01'0 0.3
2018-Oct-15 08:03N 43°32' E 007°01'0 0.1
2018-Oct-15 08:00N 43°32' E 007°01'0 0.1
2018-Oct-15 07:30N 43°32' E 007°01'0 0.1
2018-Oct-15 07:03N 43°32' E 007°01'0 0.1
2018-Oct-15 07:00N 43°32' E 007°01'0 0.0
2018-Oct-15 06:30N 43°32' E 007°01'0 0.0
2018-Oct-15 06:03N 43°32' E 007°01'0 0.1
2018-Oct-15 06:00N 43°32' E 007°01'0 0.1
2018-Oct-15 05:30N 43°32' E 007°01'0 0.7
2018-Oct-15 05:03N 43°32' E 007°01'0 3.7
2018-Oct-15 05:00N 43°31' E 007°01'3 6.7
2018-Oct-15 04:30N 43°28' E 007°02'4 8.2
2018-Oct-15 04:03N 43°28' E 007°07'0 9.1
2018-Oct-15 04:00N 43°28' E 007°07'4 8.5
2018-Oct-15 03:30N 43°28' E 007°13'4 8.5
2018-Oct-15 03:03N 43°29' E 007°18'0 8.7
2018-Oct-15 03:00N 43°29' E 007°19'4 8.7
2018-Oct-15 02:30N 43°30' E 007°25'4 8.9
2018-Oct-15 02:03N 43°31' E 007°30'0 9.1
2018-Oct-15 02:00N 43°31' E 007°31'5 9.1
2018-Oct-15 01:30N 43°32' E 007°37'4 9.2
2018-Oct-15 01:03N 43°33' E 007°43'0 9.1
2018-Oct-15 01:00N 43°33' E 007°43'5 9.2
2018-Oct-15 00:30N 43°34' E 007°49'4 8.9
2018-Oct-15 00:03N 43°36' E 007°54'0 8.9
2018-Oct-15 00:00N 43°36' E 007°55'4 8.7
2018-Oct-14 23:30N 43°37' E 008°01'4 8.5
2018-Oct-14 23:03N 43°39' E 008°06'0 8.6
2018-Oct-14 23:00N 43°39' E 008°06'4 8.9
2018-Oct-14 22:30N 43°41' E 008°12'4 8.7
2018-Oct-14 22:03N 43°43' E 008°16'0 8.4
2018-Oct-14 22:00N 43°43' E 008°17'5 9.8
2018-Oct-14 21:30N 43°46' E 008°21'510.0
2018-Oct-14 21:03N 43°50' E 008°25'0 9.8
2018-Oct-14 21:00N 43°50' E 008°26'5 9.6
2018-Oct-14 20:30N 43°54' E 008°30'4 9.2
2018-Oct-14 20:03N 43°57' E 008°33'0 9.2
2018-Oct-14 20:00N 43°58' E 008°34'5 9.0
2018-Oct-14 19:30N 44°01' E 008°38'4 8.9
2018-Oct-14 19:03N 44°04' E 008°41'0 8.9
2018-Oct-14 19:00N 44°05' E 008°42'4 9.0
2018-Oct-14 18:30N 44°08' E 008°46'4 9.0
2018-Oct-14 18:03N 44°11' E 008°49'0 8.9
2018-Oct-14 18:00N 44°12' E 008°49'4 8.8
2018-Oct-14 17:30N 44°15' E 008°53'4 9.1
2018-Oct-14 17:03N 44°18' E 008°57'0 9.2
2018-Oct-14 17:00N 44°19' E 008°57'4 8.8
2018-Oct-14 16:30N 44°23' E 008°57'2 4.0
2018-Oct-14 16:01N 44°25' E 008°55'0 0.0
2018-Oct-14 15:58N 44°25' E 008°55'0 0.0
2018-Oct-14 15:28N 44°25' E 008°55'0 0.0
2018-Oct-14 15:01N 44°25' E 008°55'0 0.0
2018-Oct-14 14:58N 44°25' E 008°55'0 0.0
2018-Oct-14 14:30N 44°25' E 008°55'0 0.0
2018-Oct-14 14:00N 44°25' E 008°55'0 0.0
2018-Oct-14 13:30N 44°25' E 008°55'0 0.0
2018-Oct-14 13:03N 44°25' E 008°55'0 0.0
2018-Oct-14 13:00N 44°25' E 008°55'0 0.0
2018-Oct-14 12:30N 44°25' E 008°55'0 0.0
2018-Oct-14 12:02N 44°25' E 008°55'0 0.0
2018-Oct-14 11:59N 44°25' E 008°55'0 0.0
2018-Oct-14 11:29N 44°25' E 008°55'0 0.0
2018-Oct-14 11:02N 44°25' E 008°55'0 0.0
2018-Oct-14 10:59N 44°25' E 008°55'0 0.0
2018-Oct-14 10:29N 44°25' E 008°55'0 0.0
2018-Oct-14 10:01N 44°25' E 008°55'0 0.0
2018-Oct-14 09:58N 44°25' E 008°55'0 0.0
2018-Oct-14 09:28N 44°25' E 008°55'0 0.0
2018-Oct-14 09:01N 44°25' E 008°55'0 0.0
2018-Oct-14 08:58N 44°25' E 008°55'0 0.0
2018-Oct-14 08:28N 44°25' E 008°55'0 0.0
2018-Oct-14 08:02N 44°25' E 008°55'0 0.0
2018-Oct-14 07:28N 44°25' E 008°55'0 0.0
2018-Oct-14 07:01N 44°25' E 008°55'0 0.0
2018-Oct-14 06:58N 44°25' E 008°55'0 0.0
2018-Oct-14 06:28N 44°25' E 008°55'0 0.0
2018-Oct-14 06:00N 44°25' E 008°55'0 0.0
2018-Oct-14 05:30N 44°25' E 008°55'0 0.0
2018-Oct-14 05:03N 44°25' E 008°55'0 0.0
2018-Oct-14 05:00N 44°25' E 008°55'1 1.8
2018-Oct-14 04:30N 44°24' E 008°55'2 4.4
2018-Oct-14 04:03N 44°23' E 008°58'0 6.6
2018-Oct-14 04:00N 44°22' E 008°58'5 9.4
2018-Oct-14 03:30N 44°18' E 008°59'4 9.7
2018-Oct-14 03:03N 44°13' E 008°59'010.0
2018-Oct-14 03:00N 44°13' E 008°59'5 9.3
2018-Oct-14 02:30N 44°08' E 008°59'4 9.1
2018-Oct-14 02:03N 44°04' E 008°59'0 8.5
2018-Oct-14 02:00N 44°04' E 008°59'4 8.3
2018-Oct-14 01:30N 43°59' E 008°59'4 8.0
2018-Oct-14 01:03N 43°56' E 008°59'0 8.0
2018-Oct-14 01:00N 43°56' E 008°59'4 8.0
2018-Oct-14 00:30N 43°52' E 008°59'4 7.9
2018-Oct-14 00:03N 43°48' E 008°59'0 7.9
2018-Oct-14 00:00N 43°48' E 008°59'4 8.1
2018-Oct-13 23:30N 43°44' E 008°59'4 8.3
2018-Oct-13 23:03N 43°40' E 009°01'0 8.7
2018-Oct-13 23:00N 43°40' E 009°01'4 8.4
2018-Oct-13 22:30N 43°38' E 009°07'4 8.5
2018-Oct-13 22:03N 43°38' E 009°12'0 8.4
2018-Oct-13 22:00N 43°38' E 009°13'4 8.4
2018-Oct-13 21:30N 43°38' E 009°18'4 8.6
2018-Oct-13 21:03N 43°38' E 009°24'0 8.8
2018-Oct-13 21:00N 43°38' E 009°24'4 8.5
2018-Oct-13 20:30N 43°39' E 009°30'4 8.4
2018-Oct-13 20:03N 43°42' E 009°34'0 8.9
2018-Oct-13 20:00N 43°42' E 009°34'5 9.5
2018-Oct-13 19:30N 43°46' E 009°38'4 9.5
2018-Oct-13 19:03N 43°49' E 009°42'0 9.3
2018-Oct-13 19:00N 43°50' E 009°42'5 9.5
2018-Oct-13 18:30N 43°54' E 009°46'4 9.3
2018-Oct-13 18:03N 43°57' E 009°49'0 9.4
2018-Oct-13 18:00N 43°57' E 009°49'5 9.0
2018-Oct-13 17:30N 44°01' E 009°52'4 9.4
2018-Oct-13 17:03N 44°06' E 009°51'0 8.2
2018-Oct-13 17:00N 44°06' E 009°51'1 1.0
2018-Oct-13 16:28N 44°06' E 009°50'0 0.0
2018-Oct-13 16:01N 44°06' E 009°50'0 0.0
2018-Oct-13 15:58N 44°06' E 009°50'0 0.0
2018-Oct-13 15:28N 44°06' E 009°50'0 0.0
2018-Oct-13 15:04N 44°06' E 009°50'0 0.0
2018-Oct-13 15:00N 44°06' E 009°50'0 0.0
2018-Oct-13 14:30N 44°06' E 009°50'0 0.0
2018-Oct-13 14:00N 44°06' E 009°50'0 0.0
2018-Oct-13 13:30N 44°06' E 009°50'0 0.0
2018-Oct-13 13:03N 44°06' E 009°50'0 0.0
2018-Oct-13 13:00N 44°06' E 009°50'0 0.0
2018-Oct-13 12:26N 44°06' E 009°50'0 0.0
2018-Oct-13 12:02N 44°06' E 009°50'0 0.0
2018-Oct-13 11:59N 44°06' E 009°50'0 0.0
2018-Oct-13 11:29N 44°06' E 009°50'0 0.0
2018-Oct-13 11:02N 44°06' E 009°50'0 0.0
2018-Oct-13 11:00N 44°06' E 009°50'0 0.0
2018-Oct-13 10:29N 44°06' E 009°50'0 0.0
2018-Oct-13 10:01N 44°06' E 009°50'0 0.0
2018-Oct-13 09:58N 44°06' E 009°50'0 0.0
2018-Oct-13 09:28N 44°06' E 009°50'0 0.0
2018-Oct-13 09:01N 44°06' E 009°50'0 0.0
2018-Oct-13 08:58N 44°06' E 009°50'0 0.0
2018-Oct-13 08:28N 44°06' E 009°50'0 0.0
2018-Oct-13 08:04N 44°06' E 009°50'0 0.0
2018-Oct-13 08:00N 44°06' E 009°50'0 0.0
2018-Oct-13 07:30N 44°06' E 009°50'0 0.0
2018-Oct-13 07:03N 44°06' E 009°50'0 0.0
2018-Oct-13 07:00N 44°06' E 009°50'0 0.0
2018-Oct-13 06:27N 44°06' E 009°50'0 0.0
2018-Oct-13 06:00N 44°06' E 009°50'0 0.0
2018-Oct-13 05:29N 44°06' E 009°50'0 0.0
2018-Oct-13 05:02N 44°06' E 009°50'0 0.0
2018-Oct-13 04:56N 44°06' E 009°50'0 0.0
2018-Oct-13 04:30N 44°06' E 009°50'0 1.1
2018-Oct-13 04:03N 44°06' E 009°51'0 1.9
2018-Oct-13 04:00N 44°06' E 009°51'3 5.8
2018-Oct-13 03:30N 44°03' E 009°52'613.4
2018-Oct-13 03:03N 43°58' E 009°55'117.7
2018-Oct-13 03:00N 43°57' E 009°55'918.0
2018-Oct-13 02:30N 43°48' E 009°50'818.1
2018-Oct-13 02:03N 43°41' E 009°46'118.1
2018-Oct-13 02:00N 43°40' E 009°46'918.7
2018-Oct-13 01:30N 43°31' E 009°44'818.9
2018-Oct-13 01:03N 43°22' E 009°42'119.0
2018-Oct-13 01:00N 43°21' E 009°42'918.9
2018-Oct-13 00:30N 43°12' E 009°41'919.1
2018-Oct-13 00:03N 43°03' E 009°40'118.6
2018-Oct-13 00:00N 43°02' E 009°39'918.7
2018-Oct-12 23:30N 42°53' E 009°43'818.8
2018-Oct-12 23:03N 42°48' E 009°52'118.7
2018-Oct-12 23:00N 42°48' E 009°53'918.9
2018-Oct-12 22:30N 42°42' E 010°04'1219.3
2018-Oct-12 21:52N 42°34' E 010°16'718.9
2018-Oct-12 21:30N 42°30' E 010°24'818.7
2018-Oct-12 21:03N 42°24' E 010°32'118.3
2018-Oct-12 21:00N 42°24' E 010°33'918.3
2018-Oct-12 20:30N 42°18' E 010°43'818.6
2018-Oct-12 20:03N 42°13' E 010°52'118.4
2018-Oct-12 20:00N 42°13' E 010°53'  

Dump ship's entire track history